Glasco, KS

1:14 PM CDT on September 02, 2014 (GMT -0500)
Simpson KS | Change Station
CLOSE
Current Station
Personal Weather Station
Location: Beloit, KS
Elevation: 1342 ft
Nearby Weather Stations

Elev 1342 ft 39.39 °N, 97.94 °W | Updated 2 minutes ago

Clear
Clear
87.6 °F
Feels Like 111 °F
N
3.7
Wind Variable Wind from ENE

Today
High -- | Low -- °F
--% Chance of Precip.
Yesterday
High -- | Low -- °F
Precip. -- in
7:00 AM 8:00 PM
First Quarter, 53% visible
Pressure 30.00 in
Visibility 10.0 miles
Clouds Clear
Heat Index 111 °F
Dew Point 84 °F
Humidity 89%
Rainfall 0.00 in
Snow Depth Not available.
UV 9 out of 12
Pollen 10.10 out of 12
Air Quality Not available.
Flu Activity Not available.
METAR KCNK 021755Z AUTO VRB03KT 10SM CLR 26/18 A3003 RMK AO2 SLP158 T02610183 10267 20139 53006

More Conditions Fewer Conditions

Pressure 30.00 in
Visibility 10.0 miles
Clouds Clear
Heat Index 111 °F
Dew Point 84 °F
Humidity 89%
Rainfall 0.00 in
Snow Depth Not available.
UV 9 out of 12
Pollen 10.10 out of 12
Air Quality Not available.
Flu Activity Not available.
METAR KCNK 021755Z AUTO VRB03KT 10SM CLR 26/18 A3003 RMK AO2 SLP158 T02610183 10267 20139 53006

More Conditions Fewer Conditions

10-Day Weather Forecast

Almanac

Astronomy

Sep. 02, 2014 Rise Set
Actual Time 7:00 AM CDT 8:00 PM CDT
Civil Twilight 6:33 AM CDT 8:27 PM CDT
Nautical Twilight 6:00 AM CDT 9:00 PM CDT
Astronomical Twilight 5:26 AM CDT 9:34 PM CDT
Moon 2:44 PM CDT 12:06 AM CDT
Length of Visible Light 13h 54m
Length of Day
12h 59m
Tomorrow will be 2m 29s shorter.
First Quarter, 53% of the Moon is Illuminated
Today
First Quarter
Sep 8
Full
Sep 15
Last Quarter
Sep 24
New
Oct 1
First Quarter

Today's Extremes

State Highs State Lows

Community

WunderPhotos

Upload Photos

1,749,723 photos uploaded!

WunderBlogs® & News

Nearby

Snow Depth

Station Depth Elevation
No new snow has been reported.

Earthquake Activity

City Distance Mag. Time & Date
No recent earthquake activity has been reported nearby.
Minimum magnitude displayed is 2.5.

Coastal Water Temperatures

Place Temperature
No Stations Reporting

Nearby Weather Stations